createdAt,value
2023-02-15T00:00:12.810Z,-9.33
2023-02-15T00:02:40.875Z,-9.41
2023-02-15T00:05:10.631Z,-9.58
2023-02-15T00:07:38.412Z,-9.82
2023-02-15T00:10:07.261Z,-9.73
2023-02-15T00:12:34.805Z,-9.75
2023-02-15T00:15:02.540Z,-9.91
2023-02-15T00:17:31.907Z,-9.87
2023-02-15T00:19:59.515Z,-9.86
2023-02-15T00:22:27.296Z,-9.84
2023-02-15T00:24:54.734Z,-9.75
2023-02-15T00:27:22.325Z,-9.67
2023-02-15T00:29:49.952Z,-9.90
2023-02-15T00:32:17.522Z,-9.76
2023-02-15T00:34:45.357Z,-10.33
2023-02-15T00:37:13.006Z,-10.40
2023-02-15T00:39:40.559Z,-10.56
2023-02-15T00:42:08.974Z,-10.52
2023-02-15T00:44:36.658Z,-10.64
2023-02-15T00:47:04.208Z,-10.47
2023-02-15T00:49:31.781Z,-10.62
2023-02-15T00:51:59.313Z,-10.82
2023-02-15T00:54:26.871Z,-10.81
2023-02-15T00:56:54.451Z,-10.81
2023-02-15T00:59:22.229Z,-10.77
2023-02-15T01:01:49.777Z,-10.72
2023-02-15T01:04:18.214Z,-10.75
2023-02-15T01:06:45.855Z,-10.77
2023-02-15T01:09:14.987Z,-10.91
2023-02-15T01:11:42.618Z,-10.70
2023-02-15T01:14:10.207Z,-10.82
2023-02-15T01:16:39.811Z,-11.05
2023-02-15T01:19:07.638Z,-11.08
2023-02-15T01:21:35.817Z,-11.20
2023-02-15T01:24:04.102Z,-11.07
2023-02-15T01:26:31.858Z,-10.98
2023-02-15T01:28:59.856Z,-11.03
2023-02-15T01:31:27.806Z,-11.09
2023-02-15T01:33:55.565Z,-11.18
2023-02-15T01:36:23.332Z,-11.14
2023-02-15T01:38:52.801Z,-11.35
2023-02-15T01:41:27.514Z,-11.11
2023-02-15T01:44:00.795Z,-11.31
2023-02-15T01:46:42.161Z,-11.16
2023-02-15T01:49:16.659Z,-11.47
2023-02-15T01:51:47.273Z,-11.57
2023-02-15T01:54:28.975Z,-11.32
2023-02-15T01:57:03.689Z,-11.47
2023-02-15T01:59:33.283Z,-11.59
2023-02-15T02:02:02.451Z,-11.52
2023-02-15T02:04:35.449Z,-11.36
2023-02-15T02:07:05.158Z,-11.47
2023-02-15T02:09:33.567Z,-11.56
2023-02-15T02:12:02.468Z,-11.41
2023-02-15T02:14:30.569Z,-11.37
2023-02-15T02:17:23.621Z,-11.47
2023-02-15T02:20:22.126Z,-11.74
2023-02-15T02:23:16.284Z,-11.50
2023-02-15T02:26:02.390Z,-11.77
2023-02-15T02:28:42.316Z,-11.82
2023-02-15T02:31:32.772Z,-11.77
2023-02-15T02:34:28.461Z,-11.60
2023-02-15T02:37:19.699Z,-11.67
2023-02-15T02:39:47.308Z,-11.53
2023-02-15T02:42:39.350Z,-11.59
2023-02-15T02:45:17.812Z,-11.69
2023-02-15T02:47:50.399Z,-11.84
2023-02-15T02:50:23.611Z,-11.76
2023-02-15T02:52:54.215Z,-11.84
2023-02-15T02:55:34.221Z,-11.96
2023-02-15T02:58:26.432Z,-12.01
2023-02-15T03:00:56.515Z,-12.14
2023-02-15T03:03:29.620Z,-12.32
2023-02-15T03:06:01.944Z,-12.21
2023-02-15T03:08:39.625Z,-12.09
2023-02-15T03:11:07.940Z,-12.09
2023-02-15T03:13:36.829Z,-12.11
2023-02-15T03:16:26.508Z,-11.98
2023-02-15T03:19:01.844Z,-12.08
2023-02-15T03:21:40.341Z,-12.45
2023-02-15T03:24:16.254Z,-12.23
2023-02-15T03:26:49.624Z,-12.47
2023-02-15T03:29:19.858Z,-12.25
2023-02-15T03:31:56.366Z,-12.34
2023-02-15T03:34:24.170Z,-12.16
2023-02-15T03:37:08.289Z,-12.37
2023-02-15T03:39:35.832Z,-12.30
2023-02-15T03:42:19.064Z,-12.64
2023-02-15T03:44:53.012Z,-12.73
2023-02-15T03:47:30.727Z,-12.65
2023-02-15T03:50:04.976Z,-12.41
2023-02-15T03:52:35.915Z,-12.26
2023-02-15T03:55:03.983Z,-12.46
2023-02-15T03:57:50.067Z,-12.42
2023-02-15T04:00:40.863Z,-12.27
2023-02-15T04:03:24.182Z,-12.29
2023-02-15T04:05:52.003Z,-12.27
2023-02-15T04:08:19.565Z,-12.44
2023-02-15T04:10:57.452Z,-12.37
2023-02-15T04:13:33.224Z,-12.65
2023-02-15T04:16:08.098Z,-12.66
2023-02-15T04:19:03.311Z,-12.83
2023-02-15T04:21:50.090Z,-12.61
2023-02-15T04:24:36.918Z,-12.48
2023-02-15T04:27:06.007Z,-12.37
2023-02-15T04:29:33.794Z,-12.31
2023-02-15T04:32:03.181Z,-12.30
2023-02-15T04:34:30.779Z,-12.41
2023-02-15T04:36:58.298Z,-12.26
2023-02-15T04:39:25.860Z,-12.19
2023-02-15T04:41:53.626Z,-12.16
2023-02-15T04:44:21.229Z,-11.97
2023-02-15T04:46:48.918Z,-11.84
2023-02-15T04:49:16.521Z,-11.89
2023-02-15T04:51:44.142Z,-11.78
2023-02-15T04:54:11.631Z,-11.77
2023-02-15T04:56:40.239Z,-11.67
2023-02-15T04:59:07.803Z,-11.48
2023-02-15T05:01:35.426Z,-11.55
2023-02-15T05:04:03.013Z,-11.54
2023-02-15T05:06:30.871Z,-11.52
2023-02-15T05:09:00.547Z,-11.35
2023-02-15T05:11:28.350Z,-11.27
2023-02-15T05:13:56.105Z,-11.13
2023-02-15T05:16:23.762Z,-11.00
2023-02-15T05:18:51.383Z,-10.90
2023-02-15T05:21:18.912Z,-10.66
2023-02-15T05:23:46.590Z,-10.49
2023-02-15T05:26:36.257Z,-10.26
2023-02-15T05:29:04.310Z,-10.02
2023-02-15T05:31:33.283Z,-9.77
2023-02-15T05:34:01.174Z,-9.52
2023-02-15T05:36:30.185Z,-9.08
2023-02-15T05:38:57.805Z,-8.86
2023-02-15T05:41:26.862Z,-8.56
2023-02-15T05:43:57.173Z,-8.18
2023-02-15T05:46:24.827Z,-7.83
2023-02-15T05:48:52.467Z,-7.26
2023-02-15T05:51:20.022Z,-7.00
2023-02-15T05:53:47.565Z,-6.59
2023-02-15T05:56:15.136Z,-6.12
2023-02-15T05:58:43.711Z,-5.77
2023-02-15T06:01:16.714Z,-5.60
2023-02-15T06:03:45.022Z,-5.30
2023-02-15T06:06:12.765Z,-5.02
2023-02-15T06:08:40.678Z,-4.17
2023-02-15T06:11:08.596Z,-3.92
2023-02-15T06:13:38.760Z,-3.55
2023-02-15T06:16:07.819Z,-3.08
2023-02-15T06:18:35.571Z,-2.61
2023-02-15T06:21:03.145Z,-2.04
2023-02-15T06:23:30.726Z,-1.99
2023-02-15T06:25:58.375Z,-1.24
2023-02-15T06:28:26.914Z,-1.07
2023-02-15T06:30:54.580Z,-0.64
2023-02-15T06:33:22.886Z,-0.07
2023-02-15T06:35:50.437Z,-0.09
2023-02-15T06:38:18.896Z,-0.06
2023-02-15T06:40:46.415Z,0.11
2023-02-15T06:43:13.930Z,0.24
2023-02-15T06:45:42.835Z,0.61
2023-02-15T06:48:11.042Z,0.95
2023-02-15T06:50:38.725Z,1.02
2023-02-15T06:53:06.392Z,1.61
2023-02-15T06:55:34.194Z,1.65
2023-02-15T06:58:01.896Z,2.11
2023-02-15T07:00:29.444Z,2.16
2023-02-15T07:02:59.084Z,1.83
2023-02-15T07:05:32.516Z,2.30
2023-02-15T07:08:00.932Z,2.50
2023-02-15T07:10:29.178Z,2.53
2023-02-15T07:12:57.779Z,2.68
2023-02-15T07:15:25.744Z,2.66
2023-02-15T07:17:53.331Z,2.65
2023-02-15T07:20:23.076Z,2.52
2023-02-15T07:22:51.500Z,2.41
2023-02-15T07:25:19.690Z,2.30
2023-02-15T07:27:47.399Z,2.26
2023-02-15T07:30:17.440Z,2.20
2023-02-15T07:33:05.579Z,1.90
2023-02-15T07:35:34.738Z,1.52
2023-02-15T07:38:02.776Z,1.02
2023-02-15T07:40:30.335Z,0.57
2023-02-15T07:43:00.448Z,0.33
2023-02-15T07:45:28.368Z,-0.08
2023-02-15T07:47:55.936Z,-0.20
2023-02-15T07:50:23.590Z,-0.33
2023-02-15T07:52:51.201Z,-0.44
2023-02-15T07:55:19.858Z,-0.46
2023-02-15T07:57:49.257Z,-0.35
2023-02-15T08:00:26.117Z,-1.22
2023-02-15T08:03:14.871Z,-1.35
2023-02-15T08:05:45.019Z,-1.39
2023-02-15T08:08:31.573Z,-1.82
2023-02-15T08:11:38.765Z,-2.21
2023-02-15T08:14:13.932Z,-2.61
2023-02-15T08:17:00.901Z,-2.90
2023-02-15T08:19:36.957Z,-3.20
2023-02-15T08:22:07.180Z,-3.54
2023-02-15T08:24:38.248Z,-3.21
2023-02-15T08:27:07.434Z,-3.30
2023-02-15T08:29:36.965Z,-3.22
2023-02-15T08:32:10.724Z,-3.71
2023-02-15T08:34:43.124Z,-4.01
2023-02-15T08:37:10.918Z,-4.08
2023-02-15T08:39:38.646Z,-4.08
2023-02-15T08:42:06.299Z,-4.17
2023-02-15T08:44:33.924Z,-4.22
2023-02-15T08:47:05.212Z,-4.56
2023-02-15T08:49:33.409Z,-4.74
2023-02-15T08:52:01.069Z,-4.86
2023-02-15T08:54:28.751Z,-4.84
2023-02-15T08:56:56.420Z,-5.16
2023-02-15T08:59:24.532Z,-5.65
2023-02-15T09:01:54.418Z,-5.63
2023-02-15T09:04:23.864Z,-6.22
2023-02-15T09:06:52.385Z,-6.33
2023-02-15T09:09:21.381Z,-6.14
2023-02-15T09:11:54.127Z,-6.05
2023-02-15T09:14:26.376Z,-6.07
2023-02-15T09:16:54.579Z,-6.21
2023-02-15T09:19:24.086Z,-6.01
2023-02-15T09:21:51.739Z,-6.49
2023-02-15T09:24:19.908Z,-6.21
2023-02-15T09:26:49.521Z,-6.23
2023-02-15T09:29:19.036Z,-6.21
2023-02-15T09:31:50.168Z,-6.05
2023-02-15T09:34:20.812Z,-6.11
2023-02-15T09:36:49.246Z,-6.06
2023-02-15T09:39:20.199Z,-6.09
2023-02-15T09:41:54.971Z,-6.04
2023-02-15T09:44:28.544Z,-5.92
2023-02-15T09:47:14.764Z,-5.98
2023-02-15T09:49:59.615Z,-6.09
2023-02-15T09:52:30.179Z,-6.05
2023-02-15T09:55:26.818Z,-6.29
2023-02-15T09:58:00.310Z,-6.20
2023-02-15T10:00:35.737Z,-6.09
2023-02-15T10:03:13.247Z,-6.15
2023-02-15T10:06:07.153Z,-6.04
2023-02-15T10:09:04.559Z,-6.03
2023-02-15T10:11:53.917Z,-6.28
2023-02-15T10:14:43.773Z,-6.59
2023-02-15T10:17:14.369Z,-6.49
2023-02-15T10:19:59.089Z,-6.86
2023-02-15T10:22:43.622Z,-6.81
2023-02-15T10:25:22.317Z,-6.53
2023-02-15T10:27:51.671Z,-6.77
2023-02-15T10:30:49.232Z,-6.59
2023-02-15T10:33:32.009Z,-6.73
2023-02-15T10:36:21.621Z,-6.82
2023-02-15T10:39:38.814Z,-6.89
2023-02-15T10:42:22.482Z,-6.79
2023-02-15T10:45:28.355Z,-7.36
2023-02-15T10:48:32.907Z,-7.33
2023-02-15T10:51:06.840Z,-7.02
2023-02-15T10:54:01.768Z,-7.35
2023-02-15T10:56:47.970Z,-7.29
2023-02-15T10:59:24.347Z,-7.16
2023-02-15T11:02:03.932Z,-7.26
2023-02-15T11:05:03.966Z,-7.18
2023-02-15T11:07:39.362Z,-7.59
2023-02-15T11:10:26.244Z,-7.75
2023-02-15T11:12:56.678Z,-8.00
2023-02-15T11:15:49.680Z,-8.15
2023-02-15T11:18:23.194Z,-8.03
2023-02-15T11:21:05.369Z,-8.39
2023-02-15T11:23:36.837Z,-8.56
2023-02-15T11:26:10.906Z,-8.79
2023-02-15T11:28:52.004Z,-9.05
2023-02-15T11:31:24.026Z,-8.82
2023-02-15T11:34:07.703Z,-8.99
2023-02-15T11:36:40.593Z,-8.98
2023-02-15T11:39:17.731Z,-8.78
2023-02-15T11:41:53.415Z,-8.79
2023-02-15T11:44:27.663Z,-8.73
2023-02-15T11:46:55.285Z,-8.69
2023-02-15T11:49:36.446Z,-8.50
2023-02-15T11:52:08.197Z,-8.82
2023-02-15T11:54:38.065Z,-8.66
2023-02-15T11:57:17.728Z,-9.15
2023-02-15T11:59:54.513Z,-8.99
2023-02-15T12:02:23.966Z,-9.20
2023-02-15T12:05:00.222Z,-9.29
2023-02-15T12:07:43.434Z,-9.56
2023-02-15T12:10:30.616Z,-9.75
2023-02-15T12:13:17.612Z,-9.49
2023-02-15T12:15:52.357Z,-9.60
2023-02-15T12:18:37.450Z,-9.27
2023-02-15T12:21:17.293Z,-9.57
2023-02-15T12:23:57.886Z,-9.35
2023-02-15T12:26:30.889Z,-9.43
2023-02-15T12:29:03.537Z,-9.60
2023-02-15T12:31:43.806Z,-9.58
2023-02-15T12:34:20.723Z,-9.85
2023-02-15T12:36:51.979Z,-10.12
2023-02-15T12:39:23.449Z,-9.91
2023-02-15T12:42:18.366Z,-10.21
2023-02-15T12:45:20.987Z,-10.25
2023-02-15T12:48:11.363Z,-10.39
2023-02-15T12:50:39.739Z,-10.56
2023-02-15T12:53:21.368Z,-10.27
2023-02-15T12:55:55.095Z,-10.23
2023-02-15T12:58:26.739Z,-10.54
2023-02-15T13:01:25.896Z,-10.31
2023-02-15T13:04:15.249Z,-10.92
2023-02-15T13:06:50.301Z,-10.54
2023-02-15T13:09:22.211Z,-10.68
2023-02-15T13:11:50.174Z,-10.55
2023-02-15T13:14:33.325Z,-10.70
2023-02-15T13:17:05.188Z,-10.58
2023-02-15T13:19:47.933Z,-10.58
2023-02-15T13:22:23.416Z,-10.66
2023-02-15T13:24:58.821Z,-10.99
2023-02-15T13:27:36.786Z,-10.99
2023-02-15T13:30:16.398Z,-10.90
2023-02-15T13:32:44.238Z,-11.16
2023-02-15T13:35:17.598Z,-11.12
2023-02-15T13:38:31.570Z,-10.98
2023-02-15T13:41:10.913Z,-11.03
2023-02-15T13:43:48.926Z,-10.93
2023-02-15T13:46:19.508Z,-11.05
2023-02-15T13:49:18.050Z,-11.17
2023-02-15T13:51:58.176Z,-11.39
2023-02-15T13:54:37.599Z,-11.93
2023-02-15T13:57:23.321Z,-11.73
2023-02-15T14:00:10.706Z,-11.65
2023-02-15T14:03:13.886Z,-11.64
2023-02-15T14:06:18.888Z,-11.54
2023-02-15T14:08:49.484Z,-11.43
2023-02-15T14:11:22.962Z,-11.76
2023-02-15T14:14:20.485Z,-11.54
2023-02-15T14:17:09.517Z,-11.55
2023-02-15T14:19:51.171Z,-11.58
2023-02-15T14:22:30.288Z,-11.73
2023-02-15T14:25:29.513Z,-11.64
2023-02-15T14:28:10.181Z,-12.15
2023-02-15T14:30:45.056Z,-12.09
2023-02-15T14:33:15.782Z,-11.88
2023-02-15T14:35:44.376Z,-11.92
2023-02-15T14:38:46.543Z,-11.91
2023-02-15T14:41:20.217Z,-12.04
2023-02-15T14:43:56.769Z,-12.08
2023-02-15T14:46:33.758Z,-12.13
2023-02-15T14:49:19.512Z,-12.08
2023-02-15T14:51:51.363Z,-11.81
2023-02-15T14:54:18.855Z,-12.31
2023-02-15T14:56:48.543Z,-12.65
2023-02-15T14:59:22.403Z,-12.44
2023-02-15T15:02:05.704Z,-12.85
2023-02-15T15:05:03.822Z,-12.59
2023-02-15T15:07:54.399Z,-12.43
2023-02-15T15:10:42.514Z,-12.31
2023-02-15T15:13:40.462Z,-12.11
2023-02-15T15:16:29.826Z,-12.26
2023-02-15T15:18:58.831Z,-12.15
2023-02-15T15:21:48.121Z,-12.37
2023-02-15T15:24:40.742Z,-12.58
2023-02-15T15:27:40.420Z,-12.53
2023-02-15T15:30:19.735Z,-12.77
2023-02-15T15:33:37.085Z,-12.74
2023-02-15T15:36:19.974Z,-12.75
2023-02-15T15:39:17.259Z,-12.94
2023-02-15T15:42:03.093Z,-13.06
2023-02-15T15:44:57.007Z,-13.20
2023-02-15T15:48:07.146Z,-13.31
2023-02-15T15:50:36.257Z,-13.44
2023-02-15T15:53:05.513Z,-13.33
2023-02-15T15:55:35.289Z,-13.42
2023-02-15T15:58:06.579Z,-13.47
2023-02-15T16:00:48.766Z,-13.02
2023-02-15T16:03:22.437Z,-13.28
2023-02-15T16:05:55.579Z,-13.19
2023-02-15T16:08:37.193Z,-13.20
2023-02-15T16:11:41.034Z,-13.52
2023-02-15T16:14:37.128Z,-13.30
2023-02-15T16:17:08.892Z,-13.39
2023-02-15T16:19:42.422Z,-13.27
2023-02-15T16:22:36.340Z,-13.12
2023-02-15T16:25:41.256Z,-13.40
2023-02-15T16:28:12.275Z,-13.35
2023-02-15T16:30:41.181Z,-13.15
2023-02-15T16:33:10.175Z,-13.20
2023-02-15T16:35:40.976Z,-13.43
2023-02-15T16:38:13.666Z,-13.36
2023-02-15T16:40:55.061Z,-13.38
2023-02-15T16:43:28.048Z,-13.69
2023-02-15T16:46:05.790Z,-13.55
2023-02-15T16:48:43.392Z,-13.56
2023-02-15T16:51:11.388Z,-13.46
2023-02-15T16:53:39.074Z,-13.46
2023-02-15T16:56:07.325Z,-13.49
2023-02-15T16:58:42.565Z,-13.50
2023-02-15T17:01:16.156Z,-13.53
2023-02-15T17:03:44.478Z,-13.23
2023-02-15T17:06:24.471Z,-13.14
2023-02-15T17:08:52.254Z,-13.34
2023-02-15T17:11:35.820Z,-13.30
2023-02-15T17:14:10.456Z,-13.32
2023-02-15T17:16:45.924Z,-13.30
2023-02-15T17:19:19.527Z,-13.07
2023-02-15T17:22:02.577Z,-13.05
2023-02-15T17:24:35.565Z,-13.33
2023-02-15T17:27:29.114Z,-13.24
2023-02-15T17:29:59.164Z,-13.29
2023-02-15T17:32:29.852Z,-13.66
2023-02-15T17:35:06.373Z,-13.80
2023-02-15T17:37:46.859Z,-13.64
2023-02-15T17:40:23.734Z,-13.65
2023-02-15T17:42:52.539Z,-13.73
2023-02-15T17:45:23.493Z,-13.34
2023-02-15T17:47:51.659Z,-13.75
2023-02-15T17:50:21.512Z,-13.53
2023-02-15T17:52:49.651Z,-13.38
2023-02-15T17:55:35.943Z,-13.56
2023-02-15T17:58:23.343Z,-13.29
2023-02-15T18:01:12.549Z,-13.24
2023-02-15T18:04:17.573Z,-13.30
2023-02-15T18:07:04.063Z,-13.40
2023-02-15T18:09:49.835Z,-13.24
2023-02-15T18:12:29.788Z,-13.32
2023-02-15T18:14:59.740Z,-13.05
2023-02-15T18:17:43.440Z,-12.99
2023-02-15T18:20:37.514Z,-12.88
2023-02-15T18:23:06.018Z,-13.15
2023-02-15T18:25:33.662Z,-12.97
2023-02-15T18:28:01.247Z,-13.17
2023-02-15T18:30:29.221Z,-13.02
2023-02-15T18:32:58.069Z,-13.04
2023-02-15T18:35:29.179Z,-13.09
2023-02-15T18:37:56.988Z,-13.11
2023-02-15T18:40:29.847Z,-12.98
2023-02-15T18:42:57.836Z,-13.49
2023-02-15T18:45:32.785Z,-13.52
2023-02-15T18:48:00.493Z,-13.67
2023-02-15T18:50:31.564Z,-13.79
2023-02-15T18:52:59.327Z,-13.70
2023-02-15T18:55:28.537Z,-13.46
2023-02-15T18:57:57.527Z,-13.94
2023-02-15T19:00:30.817Z,-13.96
2023-02-15T19:02:59.479Z,-13.62
2023-02-15T19:05:29.529Z,-13.56
2023-02-15T19:07:59.103Z,-13.69
2023-02-15T19:10:28.958Z,-13.77
2023-02-15T19:12:57.396Z,-13.99
2023-02-15T19:15:33.329Z,-13.77
2023-02-15T19:18:00.964Z,-13.56
2023-02-15T19:20:44.483Z,-13.51
2023-02-15T19:23:21.656Z,-13.60
2023-02-15T19:25:50.277Z,-13.63
2023-02-15T19:28:36.057Z,-13.72
2023-02-15T19:31:03.833Z,-13.64
2023-02-15T19:33:31.507Z,-13.57
2023-02-15T19:35:59.169Z,-13.66
2023-02-15T19:38:37.409Z,-13.53
2023-02-15T19:41:14.753Z,-13.60
2023-02-15T19:43:42.316Z,-13.69
2023-02-15T19:46:19.403Z,-13.82
2023-02-15T19:48:48.177Z,-13.76
2023-02-15T19:51:17.285Z,-13.68
2023-02-15T19:53:47.706Z,-13.72
2023-02-15T19:56:27.409Z,-13.59
2023-02-15T19:58:58.090Z,-13.71
2023-02-15T20:01:25.843Z,-13.67
2023-02-15T20:03:53.763Z,-13.53
2023-02-15T20:06:21.460Z,-13.59
2023-02-15T20:08:49.203Z,-13.64
2023-02-15T20:11:16.928Z,-13.79
2023-02-15T20:13:44.572Z,-13.73
2023-02-15T20:16:12.288Z,-13.57
2023-02-15T20:18:39.866Z,-13.77
2023-02-15T20:21:14.617Z,-13.69
2023-02-15T20:23:42.478Z,-13.62
2023-02-15T20:26:18.639Z,-13.66
2023-02-15T20:28:47.090Z,-13.38
2023-02-15T20:31:20.788Z,-13.46
2023-02-15T20:33:52.174Z,-13.24
2023-02-15T20:36:21.837Z,-13.59
2023-02-15T20:38:49.857Z,-13.77
2023-02-15T20:41:39.154Z,-13.60
2023-02-15T20:44:26.172Z,-13.50
2023-02-15T20:46:56.542Z,-13.53
2023-02-15T20:49:26.092Z,-13.30
2023-02-15T20:51:54.990Z,-13.57
2023-02-15T20:54:29.320Z,-13.61
2023-02-15T20:56:56.995Z,-13.66
2023-02-15T20:59:29.351Z,-13.47
2023-02-15T21:02:17.125Z,-13.61
2023-02-15T21:04:45.090Z,-13.44
2023-02-15T21:07:22.621Z,-13.59
2023-02-15T21:09:50.289Z,-13.57
2023-02-15T21:12:19.943Z,-13.43
2023-02-15T21:14:47.523Z,-13.27
2023-02-15T21:17:17.344Z,-13.52
2023-02-15T21:19:45.040Z,-13.56
2023-02-15T21:22:14.886Z,-13.28
2023-02-15T21:24:51.267Z,-13.12
2023-02-15T21:27:19.177Z,-13.04
2023-02-15T21:29:46.713Z,-13.20
2023-02-15T21:32:14.523Z,-13.28
2023-02-15T21:34:42.224Z,-13.40
2023-02-15T21:37:32.091Z,-13.29
2023-02-15T21:39:59.913Z,-13.27
2023-02-15T21:42:47.367Z,-13.18
2023-02-15T21:45:35.114Z,-13.12
2023-02-15T21:48:03.072Z,-13.13
2023-02-15T21:50:49.499Z,-13.01
2023-02-15T21:53:32.283Z,-12.80
2023-02-15T21:56:03.137Z,-12.91
2023-02-15T21:58:33.855Z,-12.76
2023-02-15T22:01:02.255Z,-12.60
2023-02-15T22:03:38.577Z,-12.44
2023-02-15T22:06:06.583Z,-12.36
2023-02-15T22:08:34.493Z,-12.31
2023-02-15T22:11:02.620Z,-12.20
2023-02-15T22:13:33.793Z,-12.13
2023-02-15T22:16:02.417Z,-12.04
2023-02-15T22:18:34.010Z,-12.01
2023-02-15T22:21:03.294Z,-11.90
2023-02-15T22:23:31.372Z,-11.93
2023-02-15T22:26:22.441Z,-12.11
2023-02-15T22:28:50.429Z,-12.15
2023-02-15T22:31:21.829Z,-12.20
2023-02-15T22:33:52.018Z,-12.22
2023-02-15T22:36:28.212Z,-12.30
2023-02-15T22:38:58.438Z,-12.49
2023-02-15T22:41:30.509Z,-12.31
2023-02-15T22:43:58.532Z,-12.25
2023-02-15T22:46:26.987Z,-12.46
2023-02-15T22:48:54.720Z,-12.30
2023-02-15T22:51:24.843Z,-12.49
2023-02-15T22:53:52.591Z,-12.56
2023-02-15T22:56:27.982Z,-12.46
2023-02-15T22:59:03.217Z,-12.54
2023-02-15T23:01:33.300Z,-12.52
2023-02-15T23:04:03.432Z,-12.70
2023-02-15T23:06:32.219Z,-12.43
2023-02-15T23:09:01.083Z,-12.19
2023-02-15T23:11:29.157Z,-12.17
2023-02-15T23:13:56.976Z,-12.15
2023-02-15T23:16:24.755Z,-12.16
2023-02-15T23:18:52.473Z,-12.19
2023-02-15T23:21:32.498Z,-12.05
2023-02-15T23:24:29.780Z,-11.96
2023-02-15T23:27:20.377Z,-12.03
2023-02-15T23:29:47.930Z,-12.15
2023-02-15T23:32:16.002Z,-11.97
2023-02-15T23:34:44.057Z,-12.00
2023-02-15T23:37:13.490Z,-11.99
2023-02-15T23:39:59.217Z,-11.88
2023-02-15T23:42:32.403Z,-11.73
2023-02-15T23:45:00.096Z,-11.69
2023-02-15T23:47:51.526Z,-11.69
2023-02-15T23:50:25.306Z,-11.79
2023-02-15T23:52:54.440Z,-11.72
2023-02-15T23:55:23.728Z,-11.68
2023-02-15T23:57:55.184Z,-11.71
